Time;durP1;ratioP1;P1;durP2;ratioP2;P2;SDS_P1;SDS_P2;PMS_P1;PMS_P2;Temp;Humidity;BMP_temperature;BMP_pressure;BME280_temperature;BME280_humidity;BME280_pressure;Samples;Min_cycle;Max_cycle;Signal;HPM_P1;HPM_P2
2023/04/26 00:00:10;;;;;;;12.88;4.07;;;;;6.50;98649.00;;;;5053715;28;20095;-58
2023/04/26 00:02:37;;;;;;;7.35;3.80;;;;;6.50;98650.00;;;;5053824;28;20052;-58
2023/04/26 00:05:05;;;;;;;7.05;3.92;;;;;6.40;98646.00;;;;5053828;28;20128;-58
2023/04/26 00:07:32;;;;;;;8.88;3.63;;;;;6.30;98649.00;;;;5053777;28;20079;-58
2023/04/26 00:09:59;;;;;;;9.13;3.80;;;;;6.10;98649.00;;;;5052810;28;20041;-57
2023/04/26 00:12:25;;;;;;;7.50;4.22;;;;;6.10;98649.00;;;;5053566;28;20048;-58
2023/04/26 00:14:52;;;;;;;5.55;3.50;;;;;6.10;98645.00;;;;5053434;28;20406;-58
2023/04/26 00:17:18;;;;;;;4.85;3.35;;;;;6.20;98647.00;;;;5053495;28;20052;-58
2023/04/26 00:19:45;;;;;;;7.72;4.68;;;;;6.00;98651.00;;;;5051963;28;20601;-58
2023/04/26 00:22:12;;;;;;;10.20;3.80;;;;;6.00;98642.00;;;;5052157;28;20494;-58
2023/04/26 00:24:39;;;;;;;6.32;3.60;;;;;6.00;98636.00;;;;5053343;28;20406;-57
2023/04/26 00:27:08;;;;;;;9.15;4.13;;;;;5.90;98642.00;;;;5053308;28;20041;-57
2023/04/26 00:29:36;;;;;;;8.30;4.18;;;;;5.90;98641.00;;;;5053219;28;20448;-57
2023/04/26 00:32:03;;;;;;;6.53;3.72;;;;;5.80;98653.00;;;;5052191;28;20041;-58
2023/04/26 00:34:34;;;;;;;13.93;4.28;;;;;5.80;98641.00;;;;5053657;28;20053;-57
2023/04/26 00:37:02;;;;;;;4.85;3.85;;;;;5.80;98644.00;;;;5053235;28;20049;-57
2023/04/26 00:39:29;;;;;;;7.43;3.97;;;;;5.70;98640.00;;;;5058165;28;20049;-58
2023/04/26 00:41:56;;;;;;;7.10;3.60;;;;;5.70;98643.00;;;;5064425;28;20063;-57
2023/04/26 00:44:22;;;;;;;6.80;3.88;;;;;5.60;98641.00;;;;5058999;28;20060;-57
2023/04/26 00:46:51;;;;;;;6.70;3.55;;;;;5.60;98642.00;;;;5053569;28;20045;-57
2023/04/26 00:49:20;;;;;;;11.02;3.72;;;;;5.70;98639.00;;;;5053749;28;20491;-57
2023/04/26 00:51:49;;;;;;;8.13;3.63;;;;;5.70;98646.00;;;;5053492;28;20052;-57
2023/04/26 00:54:15;;;;;;;6.20;3.58;;;;;5.70;98651.00;;;;5051853;28;20440;-57
2023/04/26 00:56:42;;;;;;;5.18;3.70;;;;;5.60;98644.00;;;;5053113;28;20048;-57
2023/04/26 00:59:08;;;;;;;6.15;3.53;;;;;5.70;98638.00;;;;5050853;28;20069;-57
2023/04/26 01:01:36;;;;;;;7.65;3.65;;;;;5.70;98647.00;;;;5051600;28;20045;-58
2023/04/26 01:04:03;;;;;;;6.88;3.58;;;;;5.80;98637.00;;;;5053172;28;20098;-57
2023/04/26 01:06:34;;;;;;;6.88;3.90;;;;;5.80;98643.00;;;;5052905;28;20071;-58
2023/04/26 01:09:07;;;;;;;8.55;4.15;;;;;5.70;98642.00;;;;5051723;28;20433;-58
2023/04/26 01:11:34;;;;;;;3.80;3.13;;;;;5.50;98640.00;;;;5052805;28;20037;-58
2023/04/26 01:14:02;;;;;;;7.18;3.60;;;;;5.40;98646.00;;;;5052718;28;20041;-58
2023/04/26 01:16:31;;;;;;;10.40;4.18;;;;;5.30;98632.00;;;;5052708;28;20068;-58
2023/04/26 01:19:11;;;;;;;6.75;3.67;;;;;5.10;98630.00;;;;5052522;28;20120;-58
2023/04/26 01:21:41;;;;;;;9.77;4.32;;;;;5.00;98626.00;;;;5051985;28;20123;-58
2023/04/26 01:24:12;;;;;;;7.32;3.88;;;;;4.90;98627.00;;;;5051441;28;20041;-57
2023/04/26 01:26:44;;;;;;;8.15;3.95;;;;;4.90;98625.00;;;;5052338;28;20044;-58
2023/04/26 01:29:20;;;;;;;7.47;4.07;;;;;4.80;98627.00;;;;5050811;28;20048;-58
2023/04/26 01:31:47;;;;;;;7.88;3.83;;;;;4.80;98624.00;;;;5050587;28;20041;-58
2023/04/26 01:34:15;;;;;;;11.90;4.30;;;;;4.70;98627.00;;;;5050739;28;20056;-58
2023/04/26 01:36:44;;;;;;;5.50;3.72;;;;;4.70;98625.00;;;;5052189;28;20059;-58
2023/04/26 01:39:11;;;;;;;6.65;3.92;;;;;4.70;98634.00;;;;5051347;28;20095;-58
2023/04/26 01:41:38;;;;;;;11.82;4.10;;;;;4.70;98617.00;;;;5052819;28;20449;-58
2023/04/26 01:44:04;;;;;;;7.07;3.80;;;;;4.70;98630.00;;;;5052475;28;20045;-57
2023/04/26 01:46:31;;;;;;;9.30;4.57;;;;;4.60;98634.00;;;;5051232;28;20128;-59
2023/04/26 01:48:57;;;;;;;8.88;4.88;;;;;4.60;98633.00;;;;5052184;28;20405;-58
2023/04/26 01:51:24;;;;;;;8.35;4.00;;;;;4.60;98635.00;;;;5052099;28;20034;-58
2023/04/26 01:53:51;;;;;;;8.35;3.88;;;;;4.70;98625.00;;;;5052703;28;20045;-59
2023/04/26 01:56:18;;;;;;;6.70;4.05;;;;;4.70;98635.00;;;;5050682;28;20057;-58
2023/04/26 01:58:45;;;;;;;5.18;4.25;;;;;4.60;98631.00;;;;5050507;28;20041;-54
2023/04/26 02:01:12;;;;;;;5.90;4.15;;;;;4.50;98632.00;;;;5050604;28;20045;-57
2023/04/26 02:03:38;;;;;;;9.68;4.15;;;;;4.40;98629.00;;;;5050647;28;20421;-56
2023/04/26 02:06:05;;;;;;;12.95;4.72;;;;;4.40;98628.00;;;;5050720;28;20161;-55
2023/04/26 02:08:32;;;;;;;9.35;4.63;;;;;4.30;98624.00;;;;5051374;28;20548;-56
2023/04/26 02:10:58;;;;;;;8.23;4.28;;;;;4.20;98625.00;;;;5051772;28;20045;-56
2023/04/26 02:13:25;;;;;;;5.93;3.78;;;;;4.20;98623.00;;;;5050399;28;20509;-54
2023/04/26 02:15:53;;;;;;;6.68;3.35;;;;;4.10;98620.00;;;;5051754;28;20044;-54
2023/04/26 02:18:21;;;;;;;9.30;3.60;;;;;4.20;98623.00;;;;5051624;28;20080;-53
2023/04/26 02:20:49;;;;;;;8.65;3.50;;;;;4.10;98629.00;;;;5051539;28;20398;-54
2023/04/26 02:23:15;;;;;;;6.30;3.60;;;;;4.00;98614.00;;;;5051715;28;20135;-54
2023/04/26 02:25:46;;;;;;;9.32;3.50;;;;;4.00;98619.00;;;;5050613;28;20120;-54
2023/04/26 02:28:12;;;;;;;11.95;4.18;;;;;4.10;98617.00;;;;5051712;28;20072;-57
2023/04/26 02:30:39;;;;;;;6.05;3.40;;;;;4.10;98617.00;;;;5051325;28;20409;-55
2023/04/26 02:33:07;;;;;;;9.38;3.63;;;;;4.10;98619.00;;;;5050771;28;20091;-54
2023/04/26 02:35:36;;;;;;;6.10;3.63;;;;;4.10;98632.00;;;;5055492;28;20068;-54
2023/04/26 02:38:03;;;;;;;7.30;3.72;;;;;4.20;98630.00;;;;5055669;28;20051;-56
2023/04/26 02:40:30;;;;;;;6.50;3.53;;;;;4.30;98626.00;;;;5053996;28;20049;-53
2023/04/26 02:42:57;;;;;;;8.48;4.00;;;;;4.10;98619.00;;;;5054264;28;20045;-53
2023/04/26 02:45:23;;;;;;;6.20;3.47;;;;;4.20;98631.00;;;;5054040;28;20056;-54
2023/04/26 02:47:50;;;;;;;7.13;3.47;;;;;4.30;98637.00;;;;5055253;28;20482;-54
2023/04/26 02:50:16;;;;;;;7.30;3.35;;;;;4.20;98626.00;;;;5055316;28;20049;-53
2023/04/26 02:52:43;;;;;;;4.93;3.00;;;;;4.20;98629.00;;;;5054146;28;20072;-55
2023/04/26 02:55:10;;;;;;;5.72;4.03;;;;;4.20;98629.00;;;;5056241;28;20493;-53
2023/04/26 02:57:37;;;;;;;7.47;3.45;;;;;4.20;98632.00;;;;5055403;28;20451;-53
2023/04/26 03:00:07;;;;;;;10.27;4.35;;;;;4.10;98627.00;;;;5053856;28;20080;-55
2023/04/26 03:02:35;;;;;;;4.47;3.55;;;;;4.10;98620.00;;;;5054763;28;20095;-56
2023/04/26 03:05:02;;;;;;;7.47;3.55;;;;;4.00;98625.00;;;;5054131;28;20056;-56
2023/04/26 03:07:30;;;;;;;6.07;3.17;;;;;4.00;98617.00;;;;5054544;28;20057;-53
2023/04/26 03:09:56;;;;;;;7.55;3.38;;;;;4.00;98624.00;;;;5056126;28;20052;-54
2023/04/26 03:12:23;;;;;;;7.20;3.33;;;;;4.10;98623.00;;;;5054854;28;20045;-53
2023/04/26 03:14:49;;;;;;;9.70;4.53;;;;;4.10;98629.00;;;;5055710;28;20037;-54
2023/04/26 03:17:17;;;;;;;7.85;3.53;;;;;4.10;98612.00;;;;5054384;28;20045;-54
2023/04/26 03:19:43;;;;;;;6.90;3.47;;;;;4.20;98622.00;;;;5054109;28;20239;-55
2023/04/26 03:22:14;;;;;;;6.57;3.60;;;;;4.10;98618.00;;;;5053537;28;20037;-54
2023/04/26 03:24:43;;;;;;;6.60;3.65;;;;;4.10;98627.00;;;;5054373;28;20053;-54
2023/04/26 03:27:10;;;;;;;5.78;3.63;;;;;4.10;98619.00;;;;5054047;28;20049;-57
2023/04/26 03:29:38;;;;;;;5.50;3.55;;;;;4.00;98621.00;;;;5053801;28;20059;-53
2023/04/26 03:32:06;;;;;;;6.47;3.40;;;;;4.00;98614.00;;;;5054043;28;20045;-54
2023/04/26 03:34:33;;;;;;;6.88;3.50;;;;;4.00;98615.00;;;;5037348;28;20056;-56
2023/04/26 03:37:02;;;;;;;13.80;5.40;;;;;3.80;98612.00;;;;5053900;28;20433;-53
2023/04/26 03:39:28;;;;;;;12.18;5.45;;;;;3.70;98600.00;;;;5053632;28;20073;-56
2023/04/26 03:41:55;;;;;;;6.97;3.60;;;;;3.70;98601.00;;;;5054013;28;20045;-55
2023/04/26 03:44:22;;;;;;;8.90;3.90;;;;;3.60;98593.00;;;;5053467;28;20045;-53
2023/04/26 03:46:48;;;;;;;5.05;3.30;;;;;3.50;98589.00;;;;5053396;28;20403;-54
2023/04/26 03:49:15;;;;;;;7.05;3.55;;;;;3.50;98597.00;;;;5053552;28;20663;-55
2023/04/26 03:51:41;;;;;;;5.95;3.60;;;;;3.40;98589.00;;;;5055350;28;20033;-55
2023/04/26 03:54:08;;;;;;;10.30;3.83;;;;;3.40;98583.00;;;;5054448;28;20052;-53
2023/04/26 03:56:35;;;;;;;5.72;3.90;;;;;3.30;98585.00;;;;5053527;28;20040;-54
2023/04/26 03:59:02;;;;;;;7.32;4.78;;;;;3.30;98576.00;;;;5052724;28;20087;-56
2023/04/26 04:01:31;;;;;;;6.25;4.30;;;;;3.20;98587.00;;;;5053122;28;20072;-54
2023/04/26 04:03:57;;;;;;;6.93;3.97;;;;;3.20;98589.00;;;;5053098;28;20040;-57
2023/04/26 04:06:25;;;;;;;10.00;4.78;;;;;3.20;98597.00;;;;5053604;28;20096;-54
2023/04/26 04:08:52;;;;;;;6.55;4.50;;;;;3.40;98596.00;;;;5054650;28;20111;-54
2023/04/26 04:11:20;;;;;;;7.68;3.78;;;;;3.40;98593.00;;;;5052675;28;20156;-54
2023/04/26 04:13:47;;;;;;;8.50;3.95;;;;;3.40;98588.00;;;;5053076;28;20041;-54
2023/04/26 04:16:13;;;;;;;8.63;4.03;;;;;3.20;98593.00;;;;5036821;28;20048;-54
2023/04/26 04:18:40;;;;;;;9.88;3.85;;;;;3.10;98588.00;;;;5052415;28;20053;-56
2023/04/26 04:21:07;;;;;;;7.28;4.07;;;;;3.10;98588.00;;;;5053751;28;20041;-54
2023/04/26 04:23:34;;;;;;;11.20;3.83;;;;;3.00;98600.00;;;;5052295;28;20055;-57
2023/04/26 04:26:05;;;;;;;10.88;4.30;;;;;3.00;98595.00;;;;5052440;28;20051;-55
2023/04/26 04:28:33;;;;;;;7.22;3.95;;;;;3.10;98606.00;;;;5051732;28;20205;-54
2023/04/26 04:31:00;;;;;;;8.95;4.60;;;;;3.20;98606.00;;;;5052278;28;20118;-55
2023/04/26 04:33:27;;;;;;;11.98;5.53;;;;;3.30;98612.00;;;;5052167;28;20075;-55
2023/04/26 04:35:55;;;;;;;11.73;5.60;;;;;3.40;98619.00;;;;5052110;28;20502;-54
2023/04/26 04:38:22;;;;;;;9.70;4.35;;;;;3.30;98622.00;;;;5052183;28;20064;-54
2023/04/26 04:40:50;;;;;;;11.93;4.30;;;;;3.20;98620.00;;;;5051927;28;20060;-55
2023/04/26 04:43:17;;;;;;;10.38;4.90;;;;;3.30;98624.00;;;;5051920;28;20132;-54
2023/04/26 04:45:45;;;;;;;7.32;3.92;;;;;3.20;98624.00;;;;5056555;28;20055;-54
2023/04/26 04:48:11;;;;;;;8.73;3.67;;;;;3.30;98627.00;;;;5056315;28;20501;-56
2023/04/26 04:50:39;;;;;;;10.55;3.97;;;;;3.40;98626.00;;;;5053594;28;20144;-57
2023/04/26 04:53:07;;;;;;;9.65;4.22;;;;;3.40;98626.00;;;;5037921;28;20091;-55
2023/04/26 04:55:35;;;;;;;8.52;3.72;;;;;3.40;98625.00;;;;5036332;28;20049;-56
2023/04/26 04:58:02;;;;;;;5.40;3.72;;;;;3.50;98626.00;;;;5053351;28;20449;-55
2023/04/26 05:00:30;;;;;;;5.95;3.67;;;;;3.60;98624.00;;;;5037700;28;20421;-55
2023/04/26 05:03:03;;;;;;;5.75;3.65;;;;;3.60;98629.00;;;;5052433;28;20048;-59
2023/04/26 05:05:30;;;;;;;4.80;3.13;;;;;3.60;98632.00;;;;5053596;28;20054;-55
2023/04/26 05:07:57;;;;;;;6.22;3.67;;;;;3.60;98629.00;;;;5051999;28;20505;-53
2023/04/26 05:10:23;;;;;;;5.95;3.85;;;;;3.70;98637.00;;;;5053378;28;20055;-54
2023/04/26 05:12:51;;;;;;;9.27;4.05;;;;;3.70;98636.00;;;;5053286;28;20449;-54
2023/04/26 05:15:17;;;;;;;7.28;3.40;;;;;3.90;98632.00;;;;5051977;28;20083;-59
2023/04/26 05:17:44;;;;;;;10.25;3.88;;;;;3.90;98639.00;;;;5051982;28;20063;-55
2023/04/26 05:20:21;;;;;;;6.78;3.80;;;;;4.10;98643.00;;;;5051130;28;20137;-55
2023/04/26 05:22:48;;;;;;;7.60;3.75;;;;;4.10;98639.00;;;;5051366;28;20095;-56
2023/04/26 05:25:16;;;;;;;7.57;4.00;;;;;4.20;98639.00;;;;5051364;28;20047;-54
2023/04/26 05:27:47;;;;;;;9.60;4.13;;;;;4.20;98650.00;;;;5051461;28;20049;-55
2023/04/26 05:30:33;;;;;;;12.85;4.32;;;;;4.30;98650.00;;;;5051498;28;20406;-56
2023/04/26 05:33:31;;;;;;;8.82;4.47;;;;;4.30;98652.00;;;;5041562;28;20059;-59
2023/04/26 05:36:27;;;;;;;11.23;4.53;;;;;4.30;98660.00;;;;5051583;28;20053;-58
2023/04/26 05:38:55;;;;;;;9.65;4.10;;;;;4.30;98654.00;;;;5051074;28;20057;-58
2023/04/26 05:41:22;;;;;;;10.85;4.07;;;;;4.40;98645.00;;;;5050935;28;20144;-58
2023/04/26 05:43:48;;;;;;;8.27;4.22;;;;;4.50;98660.00;;;;5052285;28;20048;-58
2023/04/26 05:46:15;;;;;;;10.15;4.22;;;;;4.70;98663.00;;;;5052387;28;20047;-58
2023/04/26 05:48:42;;;;;;;9.48;5.20;;;;;4.70;98672.00;;;;5050946;28;20079;-58
2023/04/26 05:51:08;;;;;;;8.63;4.18;;;;;4.80;98663.00;;;;5051773;28;20048;-60
2023/04/26 05:53:35;;;;;;;8.35;3.90;;;;;5.00;98659.00;;;;5051299;28;20521;-58
2023/04/26 05:56:02;;;;;;;9.38;4.45;;;;;5.20;98664.00;;;;5052614;28;20072;-59
2023/04/26 05:58:28;;;;;;;6.82;3.92;;;;;5.20;98674.00;;;;5051589;28;20055;-58
2023/04/26 06:00:55;;;;;;;8.15;3.90;;;;;5.10;98669.00;;;;5051121;28;20413;-58
2023/04/26 06:03:22;;;;;;;7.68;4.38;;;;;5.10;98665.00;;;;5051196;28;20654;-58
2023/04/26 06:05:49;;;;;;;9.20;4.63;;;;;5.30;98669.00;;;;5051124;28;20049;-59
2023/04/26 06:08:16;;;;;;;11.60;4.70;;;;;5.60;98676.00;;;;5051978;28;20049;-58
2023/04/26 06:10:42;;;;;;;8.27;4.25;;;;;5.60;98674.00;;;;5055035;28;20049;-57
2023/04/26 06:13:09;;;;;;;8.02;4.40;;;;;5.80;98671.00;;;;5054921;28;20072;-57
2023/04/26 06:15:36;;;;;;;6.38;4.03;;;;;5.90;98667.00;;;;5054945;28;20094;-58
2023/04/26 06:18:04;;;;;;;11.05;5.00;;;;;6.10;98663.00;;;;5054578;28;20057;-58
2023/04/26 06:20:32;;;;;;;8.27;5.00;;;;;6.10;98673.00;;;;5055699;28;20382;-58
2023/04/26 06:22:58;;;;;;;9.95;4.90;;;;;6.10;98680.00;;;;5054848;28;20147;-58
2023/04/26 06:25:25;;;;;;;8.95;4.57;;;;;6.20;98674.00;;;;5054772;28;20053;-59
2023/04/26 06:27:51;;;;;;;8.52;5.35;;;;;6.40;98675.00;;;;5054785;28;20049;-59
2023/04/26 06:30:18;;;;;;;8.30;4.53;;;;;6.40;98668.00;;;;5054496;28;20052;-58
2023/04/26 06:32:46;;;;;;;6.82;4.30;;;;;6.50;98675.00;;;;5038270;28;20556;-58
2023/04/26 06:35:13;;;;;;;9.60;4.65;;;;;6.60;98669.00;;;;5054459;28;20478;-57
2023/04/26 06:37:40;;;;;;;9.93;4.88;;;;;6.80;98669.00;;;;5054219;28;20500;-57
2023/04/26 06:40:08;;;;;;;7.95;5.07;;;;;6.90;98676.00;;;;5053977;28;20469;-57
2023/04/26 06:42:35;;;;;;;11.48;4.88;;;;;6.90;98674.00;;;;5037918;28;20498;-56
2023/04/26 06:45:20;;;;;;;7.35;4.50;;;;;7.10;98676.00;;;;5054325;28;20104;-58
2023/04/26 06:47:50;;;;;;;9.48;4.55;;;;;7.20;98680.00;;;;5055459;28;20444;-57
2023/04/26 06:50:17;;;;;;;10.32;4.10;;;;;7.10;98676.00;;;;5037387;28;20052;-56
2023/04/26 06:52:43;;;;;;;8.73;4.32;;;;;7.20;98674.00;;;;5055238;28;20482;-54
2023/04/26 06:55:10;;;;;;;10.75;4.57;;;;;7.50;98676.00;;;;5055730;28;20102;-54
2023/04/26 06:57:37;;;;;;;11.07;4.20;;;;;7.90;98679.00;;;;5055886;28;20040;-58
2023/04/26 07:00:04;;;;;;;9.25;4.68;;;;;8.10;98677.00;;;;5054674;28;20076;-55
2023/04/26 07:02:31;;;;;;;8.15;4.25;;;;;8.20;98671.00;;;;5054290;28;20107;-57
2023/04/26 07:04:58;;;;;;;9.68;4.50;;;;;8.20;98669.00;;;;5055083;28;20383;-54
2023/04/26 07:07:25;;;;;;;8.80;4.25;;;;;8.40;98670.00;;;;5055961;28;20045;-54
2023/04/26 07:09:51;;;;;;;6.18;3.97;;;;;8.60;98678.00;;;;5058401;28;20049;-58
2023/04/26 07:12:18;;;;;;;6.15;4.20;;;;;8.90;98682.00;;;;5056800;28;20041;-56
2023/04/26 07:14:45;;;;;;;13.75;5.30;;;;;9.10;98687.00;;;;5055324;28;20049;-54
2023/04/26 07:17:11;;;;;;;15.30;3.80;;;;;9.20;98685.00;;;;5055023;28;20041;-55
2023/04/26 07:19:38;;;;;;;8.70;4.25;;;;;9.30;98681.00;;;;5053369;28;20048;-56
2023/04/26 07:22:04;;;;;;;9.32;4.70;;;;;9.40;98671.00;;;;5054354;28;20037;-55
2023/04/26 07:24:31;;;;;;;10.73;4.40;;;;;9.40;98668.00;;;;5054529;28;20052;-54
2023/04/26 07:26:58;;;;;;;11.27;4.65;;;;;9.40;98671.00;;;;5054621;28;20040;-54
2023/04/26 07:29:24;;;;;;;10.07;4.50;;;;;9.20;98672.00;;;;5054370;28;20453;-56
2023/04/26 07:31:51;;;;;;;9.73;4.93;;;;;9.20;98673.00;;;;5054441;28;20048;-57
2023/04/26 07:34:18;;;;;;;8.27;4.30;;;;;9.40;98674.00;;;;5054386;28;20102;-55
2023/04/26 07:36:45;;;;;;;9.35;4.65;;;;;9.50;98678.00;;;;5054632;28;20040;-56
2023/04/26 07:39:11;;;;;;;7.03;4.28;;;;;9.60;98673.00;;;;5053978;28;20471;-55
2023/04/26 07:41:38;;;;;;;8.18;4.30;;;;;9.70;98673.00;;;;5054153;28;20048;-54
2023/04/26 07:44:07;;;;;;;9.90;4.22;;;;;9.60;98669.00;;;;5054318;28;20076;-56
2023/04/26 07:46:33;;;;;;;8.13;4.32;;;;;9.60;98668.00;;;;5054234;28;20049;-56
2023/04/26 07:49:00;;;;;;;12.00;4.25;;;;;9.60;98663.00;;;;5053585;28;20099;-55
2023/04/26 07:51:27;;;;;;;8.57;4.38;;;;;9.70;98666.00;;;;5053903;28;20402;-56
2023/04/26 07:53:57;;;;;;;10.55;4.20;;;;;10.00;98671.00;;;;5052655;28;20052;-56
2023/04/26 07:56:23;;;;;;;8.43;4.18;;;;;10.30;98681.00;;;;5054295;28;20037;-56
2023/04/26 07:58:50;;;;;;;8.50;4.05;;;;;10.30;98665.00;;;;5052538;28;20502;-57
2023/04/26 08:01:17;;;;;;;5.38;3.38;;;;;10.40;98668.00;;;;5054765;28;20079;-56
2023/04/26 08:03:43;;;;;;;8.25;4.00;;;;;10.40;98670.00;;;;5054027;28;20037;-57
2023/04/26 08:06:11;;;;;;;7.22;3.88;;;;;10.30;98670.00;;;;5054246;28;20045;-55
2023/04/26 08:08:43;;;;;;;10.15;3.80;;;;;10.30;98665.00;;;;5054188;28;20049;-56
2023/04/26 08:11:10;;;;;;;6.78;2.88;;;;;10.40;98678.00;;;;5053276;28;20053;-56
2023/04/26 08:13:37;;;;;;;7.22;2.97;;;;;10.50;98672.00;;;;5054243;28;20041;-55
2023/04/26 08:16:04;;;;;;;7.45;3.10;;;;;10.60;98673.00;;;;5053752;28;20071;-57
2023/04/26 08:18:31;;;;;;;5.55;2.75;;;;;10.70;98674.00;;;;5054356;28;20242;-57
2023/04/26 08:20:57;;;;;;;6.03;2.47;;;;;10.80;98673.00;;;;5053345;28;20060;-55
2023/04/26 08:23:24;;;;;;;6.03;3.22;;;;;11.00;98669.00;;;;5054470;28;20045;-57
2023/04/26 08:25:50;;;;;;;5.53;2.55;;;;;11.10;98665.00;;;;5055166;28;20044;-57
2023/04/26 08:28:17;;;;;;;5.72;2.63;;;;;11.50;98661.00;;;;5056292;28;20520;-56
2023/04/26 08:30:44;;;;;;;9.07;3.05;;;;;11.80;98667.00;;;;5056524;28;20041;-54
2023/04/26 08:33:10;;;;;;;8.18;3.58;;;;;11.90;98664.00;;;;5056715;28;20111;-55
2023/04/26 08:35:37;;;;;;;4.65;2.20;;;;;12.10;98663.00;;;;5057701;28;20052;-55
2023/04/26 08:38:04;;;;;;;5.30;2.38;;;;;12.30;98663.00;;;;5058451;28;20498;-54
2023/04/26 08:40:31;;;;;;;5.35;1.90;;;;;12.40;98656.00;;;;5054416;28;20068;-56
2023/04/26 08:42:58;;;;;;;4.47;2.40;;;;;12.30;98659.00;;;;5036909;28;20045;-54
2023/04/26 08:45:25;;;;;;;10.32;3.15;;;;;12.50;98657.00;;;;5054613;28;20047;-56
2023/04/26 08:48:04;;;;;;;6.38;2.42;;;;;12.80;98662.00;;;;5054576;28;20052;-55
2023/04/26 08:50:33;;;;;;;4.20;2.72;;;;;12.90;98658.00;;;;5053611;28;20119;-56
2023/04/26 08:52:59;;;;;;;5.72;3.10;;;;;12.80;98656.00;;;;5053987;28;20486;-55
2023/04/26 08:55:26;;;;;;;7.15;2.40;;;;;12.80;98658.00;;;;5053699;28;20053;-56
2023/04/26 08:57:54;;;;;;;8.50;2.28;;;;;13.10;98664.00;;;;5054549;28;20040;-57
2023/04/26 09:00:22;;;;;;;5.82;2.78;;;;;13.40;98665.00;;;;5053948;28;20140;-57
2023/04/26 09:02:51;;;;;;;7.68;2.60;;;;;13.50;98664.00;;;;5053917;28;20045;-55
2023/04/26 09:05:26;;;;;;;6.78;2.40;;;;;13.60;98665.00;;;;5052748;28;20041;-54
2023/04/26 09:07:55;;;;;;;;;;;;;13.30;98661.00;;;;5054366;28;20128;-54
2023/04/26 09:10:22;;;;;;;6.50;2.65;;;;;12.90;98664.00;;;;5053815;28;19932;-54
2023/04/26 09:12:52;;;;;;;6.47;2.63;;;;;13.20;98665.00;;;;5054213;28;20095;-55
2023/04/26 09:15:23;;;;;;;6.25;2.65;;;;;13.50;98656.00;;;;5054085;28;20056;-56
2023/04/26 09:17:50;;;;;;;4.22;2.38;;;;;14.00;98657.00;;;;5052449;28;20053;-57
2023/04/26 09:20:21;;;;;;;9.93;2.88;;;;;14.20;98654.00;;;;5052542;28;20076;-57
2023/04/26 09:22:52;;;;;;;4.35;2.40;;;;;14.00;98660.00;;;;5054664;28;20071;-55
2023/04/26 09:25:29;;;;;;;7.68;2.42;;;;;14.10;98658.00;;;;5053920;28;20045;-56
2023/04/26 09:27:57;;;;;;;6.22;2.60;;;;;14.00;98658.00;;;;5053959;28;20128;-57
2023/04/26 09:30:25;;;;;;;4.65;2.22;;;;;14.20;98656.00;;;;5053575;28;20044;-57
2023/04/26 09:33:02;;;;;;;4.47;1.90;;;;;14.40;98660.00;;;;5052813;28;20114;-56
2023/04/26 09:35:33;;;;;;;5.78;2.10;;;;;14.60;98662.00;;;;5053111;28;20060;-63
2023/04/26 09:38:01;;;;;;;6.95;2.88;;;;;14.40;98650.00;;;;5052860;28;20547;-57
2023/04/26 09:40:37;;;;;;;5.07;2.30;;;;;14.30;98646.00;;;;5052995;28;20053;-59
2023/04/26 09:43:07;;;;;;;5.43;2.50;;;;;14.40;98650.00;;;;5052447;28;20391;-59
2023/04/26 09:45:54;;;;;;;6.43;2.05;;;;;14.70;98654.00;;;;5053469;28;20484;-59
2023/04/26 09:48:27;;;;;;;7.78;2.20;;;;;14.80;98641.00;;;;5053620;28;20124;-58
2023/04/26 09:50:58;;;;;;;3.10;2.03;;;;;14.90;98648.00;;;;5053221;28;20053;-59
2023/04/26 09:53:38;;;;;;;7.97;2.38;;;;;14.80;98659.00;;;;5054179;28;20296;-59
2023/04/26 09:56:17;;;;;;;4.15;2.40;;;;;14.70;98652.00;;;;5054274;28;20667;-58
2023/04/26 09:58:50;;;;;;;8.50;2.13;;;;;14.90;98648.00;;;;5052327;28;20052;-59
2023/04/26 10:01:18;;;;;;;;;;;;;14.90;98648.00;;;;5053387;28;20045;-59
2023/04/26 10:03:45;;;;;;;7.97;2.33;;;;;14.90;98645.00;;;;5053499;28;19921;-59
2023/04/26 10:06:13;;;;;;;6.63;2.08;;;;;15.00;98648.00;;;;5053977;28;20098;-59
2023/04/26 10:08:40;;;;;;;4.50;2.40;;;;;15.10;98651.00;;;;5053673;28;20106;-59
2023/04/26 10:11:10;;;;;;;5.60;2.75;;;;;14.80;98644.00;;;;5053171;28;20059;-58
2023/04/26 10:13:37;;;;;;;6.78;2.15;;;;;14.70;98649.00;;;;5053783;28;20087;-59
2023/04/26 10:16:05;;;;;;;6.18;2.35;;;;;14.70;98646.00;;;;5054324;28;20041;-57
2023/04/26 10:18:32;;;;;;;6.15;2.28;;;;;14.60;98651.00;;;;5053836;28;20475;-55
2023/04/26 10:21:03;;;;;;;7.60;2.30;;;;;14.50;98649.00;;;;5054578;28;20041;-55
2023/04/26 10:23:32;;;;;;;3.60;2.13;;;;;14.40;98645.00;;;;5051747;28;20044;-53
2023/04/26 10:25:58;;;;;;;6.47;2.50;;;;;14.40;98644.00;;;;5053404;28;20600;-59
2023/04/26 10:28:55;;;;;;;4.97;2.22;;;;;14.20;98648.00;;;;5053342;28;20084;-57
2023/04/26 10:32:03;;;;;;;6.03;2.00;;;;;14.30;98632.00;;;;5050272;28;20061;-59
2023/04/26 10:34:32;;;;;;;4.07;2.50;;;;;14.40;98627.00;;;;5058215;28;20044;-57
2023/04/26 10:37:12;;;;;;;7.35;2.17;;;;;14.20;98622.00;;;;5056134;28;20045;-58
2023/04/26 10:39:40;;;;;;;8.40;3.33;;;;;14.20;98629.00;;;;5056792;28;20045;-58
2023/04/26 10:42:23;;;;;;;6.47;2.50;;;;;14.00;98618.00;;;;5056810;28;20734;-58
2023/04/26 10:44:56;;;;;;;4.05;2.25;;;;;14.10;98620.00;;;;5057967;28;20132;-58
2023/04/26 10:47:31;;;;;;;3.95;2.50;;;;;14.30;98611.00;;;;5059830;28;20053;-58
2023/04/26 10:50:16;;;;;;;9.35;2.90;;;;;14.40;98605.00;;;;5057671;28;20051;-58
2023/04/26 10:53:03;;;;;;;3.28;1.95;;;;;14.40;98598.00;;;;5055542;28;20102;-58
2023/04/26 10:55:40;;;;;;;5.28;2.25;;;;;14.40;98608.00;;;;5058966;28;20375;-58
2023/04/26 10:58:32;;;;;;;6.93;2.13;;;;;14.50;98604.00;;;;5058182;28;20111;-58
2023/04/26 11:01:16;;;;;;;5.07;2.13;;;;;14.40;98609.00;;;;5058821;28;20079;-57
2023/04/26 11:04:00;;;;;;;4.53;2.10;;;;;14.60;98603.00;;;;5057924;28;20073;-58
2023/04/26 11:06:47;;;;;;;6.18;2.33;;;;;14.90;98602.00;;;;5059081;28;20072;-58
2023/04/26 11:09:36;;;;;;;2.60;1.98;;;;;15.10;98591.00;;;;5057907;28;20448;-58
2023/04/26 11:12:04;;;;;;;5.55;2.17;;;;;15.20;98593.00;;;;5057718;28;20750;-58
2023/04/26 11:14:33;;;;;;;3.80;2.15;;;;;15.20;98585.00;;;;5057124;28;20063;-54
2023/04/26 11:17:04;;;;;;;3.13;2.00;;;;;15.30;98585.00;;;;5056710;28;20470;-54
2023/04/26 11:19:31;;;;;;;2.80;2.05;;;;;15.40;98587.00;;;;5056002;28;20110;-54
2023/04/26 11:21:59;;;;;;;4.43;1.92;;;;;15.70;98575.00;;;;5057678;28;20049;-55
2023/04/26 11:24:27;;;;;;;3.90;1.98;;;;;15.60;98579.00;;;;5055668;28;20045;-55
2023/04/26 11:26:53;;;;;;;8.48;2.63;;;;;15.70;98570.00;;;;5055677;28;20060;-57
2023/04/26 11:29:20;;;;;;;2.90;1.77;;;;;15.80;98576.00;;;;5057560;28;20048;-56
2023/04/26 11:31:55;;;;;;;4.05;1.98;;;;;15.70;98572.00;;;;5057562;28;20441;-54
2023/04/26 11:34:35;;;;;;;5.85;2.55;;;;;15.90;98568.00;;;;5057235;28;20630;-53
2023/04/26 11:37:03;;;;;;;3.95;2.22;;;;;16.10;98575.00;;;;5057036;28;20045;-54
2023/04/26 11:39:34;;;;;;;4.90;2.53;;;;;16.20;98566.00;;;;5057219;28;20416;-57
2023/04/26 11:42:09;;;;;;;4.97;2.08;;;;;15.90;98570.00;;;;5057772;28;20107;-55
2023/04/26 11:44:36;;;;;;;4.35;2.28;;;;;15.70;98570.00;;;;5056315;28;20052;-54
2023/04/26 11:47:05;;;;;;;4.82;2.35;;;;;15.30;98563.00;;;;5055806;28;20049;-54
2023/04/26 11:49:34;;;;;;;6.03;2.47;;;;;15.20;98564.00;;;;5055446;28;20049;-54
2023/04/26 11:52:02;;;;;;;4.00;1.77;;;;;15.40;98561.00;;;;5055902;28;20056;-54
2023/04/26 11:54:30;;;;;;;4.47;2.00;;;;;15.20;98564.00;;;;5058481;28;20510;-56
2023/04/26 11:56:57;;;;;;;4.43;2.28;;;;;15.30;98566.00;;;;5057632;28;20045;-54
2023/04/26 11:59:25;;;;;;;4.75;2.13;;;;;15.20;98557.00;;;;5055705;28;20052;-53
2023/04/26 12:01:52;;;;;;;3.85;2.08;;;;;15.10;98556.00;;;;5055273;28;20048;-54
2023/04/26 12:04:27;;;;;;;3.70;2.08;;;;;15.20;98560.00;;;;5054233;28;20041;-57
2023/04/26 12:06:56;;;;;;;5.30;2.08;;;;;15.30;98566.00;;;;5054177;28;20055;-53
2023/04/26 12:09:26;;;;;;;5.97;1.80;;;;;15.20;98550.00;;;;5053240;28;20076;-53
2023/04/26 12:12:00;;;;;;;5.50;2.08;;;;;15.30;98550.00;;;;5054261;28;20040;-54
2023/04/26 12:14:30;;;;;;;6.68;2.33;;;;;15.50;98553.00;;;;5054405;28;20083;-56
2023/04/26 12:17:01;;;;;;;4.90;2.00;;;;;15.80;98550.00;;;;5054401;28;20033;-55
2023/04/26 12:19:35;;;;;;;9.10;2.83;;;;;16.00;98549.00;;;;5053948;28;20041;-53
2023/04/26 12:22:03;;;;;;;2.85;1.90;;;;;16.30;98546.00;;;;5053948;28;20063;-53
2023/04/26 12:24:35;;;;;;;5.78;2.17;;;;;16.70;98555.00;;;;5054105;28;20069;-53
2023/04/26 12:27:05;;;;;;;7.55;2.20;;;;;16.90;98544.00;;;;5053217;28;20501;-56
2023/04/26 12:29:32;;;;;;;10.98;6.22;;;;;17.10;98550.00;;;;5053703;28;20041;-56
2023/04/26 12:31:59;;;;;;;6.72;2.70;;;;;17.30;98547.00;;;;5053074;28;20045;-54